Time;durP1;ratioP1;P1;durP2;ratioP2;P2;SDS_P1;SDS_P2;PMS_P1;PMS_P2;Temp;Humidity;BMP_temperature;BMP_pressure;BME280_temperature;BME280_humidity;BME280_pressure;Samples;Min_cycle;Max_cycle;Signal;HPM_P1;HPM_P2
2024/04/01 00:02:22;;;;;;;19.75;13.93;;;16.60;62.70;;;;;;5051036;28;20544;-65
2024/04/01 00:04:47;;;;;;;18.40;13.52;;;16.60;62.70;;;;;;5050849;28;20258;-66
2024/04/01 00:07:13;;;;;;;18.17;13.50;;;16.50;62.60;;;;;;5051584;28;20261;-66
2024/04/01 00:09:38;;;;;;;18.58;13.32;;;16.50;62.60;;;;;;5052069;28;20646;-65
2024/04/01 00:12:04;;;;;;;17.70;13.65;;;16.60;62.60;;;;;;5051262;28;20759;-65
2024/04/01 00:14:30;;;;;;;19.15;14.07;;;16.60;62.60;;;;;;5050906;28;20167;-66
2024/04/01 00:16:55;;;;;;;18.10;13.70;;;16.50;62.60;;;;;;5051314;28;20276;-66
2024/04/01 00:19:21;;;;;;;16.30;13.57;;;16.50;62.50;;;;;;5051082;28;20200;-66
2024/04/01 00:21:46;;;;;;;19.55;13.32;;;16.50;62.50;;;;;;5051897;28;20210;-66
2024/04/01 00:24:12;;;;;;;18.10;13.07;;;16.60;62.50;;;;;;5051007;28;20630;-66
2024/04/01 00:26:37;;;;;;;16.58;12.88;;;16.50;62.50;;;;;;5050797;28;20186;-66
2024/04/01 00:29:03;;;;;;;17.15;12.98;;;16.50;62.50;;;;;;5051408;28;20175;-65
2024/04/01 00:31:31;;;;;;;15.68;12.82;;;16.50;62.50;;;;;;5050777;28;20186;-64
2024/04/01 00:33:59;;;;;;;19.27;12.68;;;16.50;62.50;;;;;;5051547;28;20217;-64
2024/04/01 00:36:25;;;;;;;16.25;12.40;;;16.50;62.50;;;;;;5051328;28;20209;-65
2024/04/01 00:38:50;;;;;;;16.15;12.65;;;16.50;62.40;;;;;;5051191;28;20178;-64
2024/04/01 00:41:19;;;;;;;16.55;12.63;;;16.50;62.50;;;;;;5051115;28;20706;-66
2024/04/01 00:43:45;;;;;;;15.35;12.43;;;16.50;62.40;;;;;;5051620;28;20186;-66
2024/04/01 00:46:10;;;;;;;18.10;12.93;;;16.50;62.40;;;;;;5050531;28;20179;-65
2024/04/01 00:48:36;;;;;;;13.30;11.70;;;16.50;62.40;;;;;;5050491;28;20577;-67
2024/04/01 00:51:01;;;;;;;15.02;11.95;;;16.40;62.30;;;;;;5050222;28;20705;-66
2024/04/01 00:53:27;;;;;;;15.52;12.60;;;16.50;62.40;;;;;;5049700;28;20973;-66
2024/04/01 00:55:52;;;;;;;16.17;12.40;;;16.50;62.40;;;;;;5049933;28;20175;-65
2024/04/01 00:58:18;;;;;;;14.57;12.10;;;16.40;62.30;;;;;;5048930;28;20214;-66
2024/04/01 01:00:44;;;;;;;17.08;12.65;;;16.40;62.30;;;;;;5049281;28;20178;-65
2024/04/01 01:03:10;;;;;;;15.48;12.07;;;16.40;62.30;;;;;;5049883;28;20718;-64
2024/04/01 01:05:36;;;;;;;13.90;12.25;;;16.40;62.20;;;;;;5051605;28;20170;-66
2024/04/01 01:08:01;;;;;;;15.95;12.10;;;16.40;62.20;;;;;;5049054;28;20176;-66
2024/04/01 01:10:27;;;;;;;13.57;12.18;;;16.40;62.20;;;;;;5052380;28;20672;-66
2024/04/01 01:12:52;;;;;;;13.68;11.40;;;16.40;62.20;;;;;;5055620;28;20197;-66
2024/04/01 01:15:18;;;;;;;13.30;11.63;;;16.40;62.20;;;;;;5054512;28;20217;-65
2024/04/01 01:17:45;;;;;;;13.30;11.90;;;16.40;62.20;;;;;;5055064;28;20679;-65
2024/04/01 01:20:13;;;;;;;15.20;11.82;;;16.40;62.20;;;;;;5054788;28;20182;-66
2024/04/01 01:22:40;;;;;;;15.02;11.93;;;16.40;62.10;;;;;;5053142;28;20175;-66
2024/04/01 01:25:07;;;;;;;15.48;12.32;;;16.40;62.10;;;;;;5054461;28;20186;-65
2024/04/01 01:27:40;;;;;;;14.00;12.27;;;16.40;62.20;;;;;;5053418;28;20617;-65
2024/04/01 01:30:16;;;;;;;13.60;11.43;;;16.40;62.10;;;;;;5054034;28;20656;-65
2024/04/01 01:32:52;;;;;;;13.15;11.75;;;16.40;62.10;;;;;;5055035;28;20175;-65
2024/04/01 01:35:22;;;;;;;13.55;12.15;;;16.40;62.10;;;;;;5053229;28;20214;-65
2024/04/01 01:37:51;;;;;;;12.38;10.88;;;16.40;62.10;;;;;;5053576;28;20261;-66
2024/04/01 01:40:16;;;;;;;12.50;11.25;;;16.40;62.10;;;;;;5052803;28;20634;-66
2024/04/01 01:42:42;;;;;;;13.32;11.75;;;16.40;62.10;;;;;;5053913;28;20193;-66
2024/04/01 01:45:08;;;;;;;12.80;11.02;;;16.40;62.00;;;;;;5054429;28;20626;-65
2024/04/01 01:47:34;;;;;;;13.80;11.43;;;16.40;62.10;;;;;;5054910;28;20194;-67
2024/04/01 01:50:00;;;;;;;14.35;11.15;;;16.40;62.10;;;;;;5054087;28;20175;-67
2024/04/01 01:52:26;;;;;;;11.95;10.82;;;16.40;62.10;;;;;;5054313;28;20604;-66
2024/04/01 01:54:52;;;;;;;11.40;10.07;;;16.40;62.00;;;;;;5054627;28;20175;-66
2024/04/01 01:57:17;;;;;;;12.25;10.98;;;16.30;62.00;;;;;;5053457;28;20298;-66
2024/04/01 01:59:43;;;;;;;12.60;11.02;;;16.30;61.90;;;;;;5036691;28;20180;-65
2024/04/01 02:02:08;;;;;;;11.80;10.38;;;16.30;62.00;;;;;;5034444;28;20175;-65
2024/04/01 02:04:34;;;;;;;12.35;10.52;;;16.30;62.00;;;;;;5033712;28;20650;-66
2024/04/01 02:07:01;;;;;;;12.43;10.80;;;16.30;62.00;;;;;;5034156;28;20184;-65
2024/04/01 02:09:26;;;;;;;11.73;10.50;;;16.40;62.00;;;;;;5034151;28;20207;-66
2024/04/01 02:11:52;;;;;;;12.63;10.65;;;16.30;61.90;;;;;;5033642;28;20518;-65
2024/04/01 02:14:20;;;;;;;11.63;10.32;;;16.30;61.90;;;;;;5033957;28;20679;-66
2024/04/01 02:16:46;;;;;;;17.77;10.55;;;16.30;61.90;;;;;;5034464;28;20246;-65
2024/04/01 02:19:13;;;;;;;12.07;10.82;;;16.30;61.90;;;;;;5032936;28;20925;-66
2024/04/01 02:21:38;;;;;;;11.07;9.48;;;16.30;61.90;;;;;;5034176;28;20180;-66
2024/04/01 02:24:04;;;;;;;13.88;10.73;;;16.30;61.90;;;;;;5033469;28;20704;-65
2024/04/01 02:26:30;;;;;;;11.10;9.90;;;16.30;61.90;;;;;;5033931;28;20172;-66
2024/04/01 02:28:55;;;;;;;13.27;9.95;;;16.30;61.90;;;;;;5045178;28;20653;-64
2024/04/01 02:31:21;;;;;;;12.05;9.90;;;16.30;61.90;;;;;;5052848;28;20175;-65
2024/04/01 02:33:47;;;;;;;11.10;9.35;;;16.30;61.90;;;;;;5053361;28;20174;-65
2024/04/01 02:36:13;;;;;;;10.57;9.30;;;16.30;61.90;;;;;;5053283;28;20182;-66
2024/04/01 02:38:38;;;;;;;10.70;9.60;;;16.30;61.90;;;;;;5053212;28;20183;-65
2024/04/01 02:41:04;;;;;;;10.85;9.75;;;16.30;61.90;;;;;;5052841;28;20776;-65
2024/04/01 02:43:29;;;;;;;10.57;9.57;;;16.30;61.90;;;;;;5052264;28;20183;-66
2024/04/01 02:45:55;;;;;;;10.52;9.43;;;16.30;61.90;;;;;;5051973;28;20182;-66
2024/04/01 02:48:20;;;;;;;10.07;9.10;;;16.20;61.80;;;;;;5052203;28;20175;-67
2024/04/01 02:50:47;;;;;;;10.40;9.20;;;16.20;61.70;;;;;;5052626;28;20213;-66
2024/04/01 02:53:13;;;;;;;10.77;9.40;;;16.20;61.80;;;;;;5051344;28;20171;-66
2024/04/01 02:55:38;;;;;;;10.07;9.02;;;16.20;61.70;;;;;;5051501;28;20645;-65
2024/04/01 02:58:04;;;;;;;10.10;9.10;;;16.20;61.70;;;;;;5051714;28;20203;-66
2024/04/01 03:00:29;;;;;;;9.57;8.68;;;16.20;61.80;;;;;;5051728;28;20179;-65
2024/04/01 03:02:56;;;;;;;10.70;9.30;;;16.20;61.70;;;;;;5052529;28;20558;-66
2024/04/01 03:05:21;;;;;;;9.80;8.80;;;16.20;61.70;;;;;;5052185;28;20190;-66
2024/04/01 03:07:49;;;;;;;9.27;8.38;;;16.20;61.70;;;;;;5051589;28;20195;-66
2024/04/01 03:10:14;;;;;;;9.55;8.55;;;16.20;61.70;;;;;;5050706;28;20185;-66
2024/04/01 03:12:43;;;;;;;10.48;8.88;;;16.20;61.80;;;;;;5052208;28;20270;-64
2024/04/01 03:15:10;;;;;;;10.40;8.57;;;16.20;61.70;;;;;;5051243;28;20245;-65
2024/04/01 03:17:35;;;;;;;9.60;8.60;;;16.20;61.70;;;;;;5051894;28;20219;-65
2024/04/01 03:20:01;;;;;;;10.02;8.73;;;16.20;61.70;;;;;;5052101;28;20224;-65
2024/04/01 03:22:26;;;;;;;9.95;8.77;;;16.20;61.70;;;;;;5051180;28;20698;-65
2024/04/01 03:24:52;;;;;;;8.98;8.15;;;16.20;62.50;;;;;;5051759;28;20565;-65
2024/04/01 03:27:18;;;;;;;9.30;8.30;;;16.20;61.70;;;;;;5050802;28;20263;-65
2024/04/01 03:29:44;;;;;;;9.90;8.88;;;16.20;61.60;;;;;;5051749;28;20272;-64
2024/04/01 03:32:09;;;;;;;9.63;8.63;;;16.20;61.60;;;;;;5050712;28;20185;-64
2024/04/01 03:34:35;;;;;;;9.93;8.93;;;16.20;61.60;;;;;;5051381;28;20229;-65
2024/04/01 03:37:02;;;;;;;9.00;7.97;;;16.10;61.50;;;;;;5051811;28;20708;-64
2024/04/01 03:39:29;;;;;;;10.88;8.13;;;16.10;61.60;;;;;;5051572;28;20254;-66
2024/04/01 03:41:54;;;;;;;8.63;7.75;;;16.20;61.60;;;;;;5014494;28;1052703;-65
2024/04/01 03:44:20;;;;;;;10.10;7.72;;;16.10;61.60;;;;;;5052318;28;20424;-66
2024/04/01 03:46:45;;;;;;;8.77;7.95;;;16.20;61.60;;;;;;5052751;28;21002;-65
2024/04/01 03:49:11;;;;;;;8.38;7.50;;;16.10;61.50;;;;;;5051446;28;20183;-66
2024/04/01 03:51:37;;;;;;;9.07;8.18;;;16.10;61.60;;;;;;5052451;28;20217;-66
2024/04/01 03:54:03;;;;;;;9.48;7.53;;;16.10;61.50;;;;;;5051732;28;20182;-66
2024/04/01 03:56:29;;;;;;;8.57;7.68;;;16.10;61.50;;;;;;5050764;28;20211;-66
2024/04/01 03:58:55;;;;;;;8.88;7.97;;;16.20;61.60;;;;;;5051982;28;20698;-65
2024/04/01 04:01:21;;;;;;;7.68;6.97;;;16.10;61.50;;;;;;5051821;28;20266;-65
2024/04/01 04:03:47;;;;;;;8.55;7.75;;;16.10;61.50;;;;;;5051522;28;20266;-65
2024/04/01 04:06:12;;;;;;;7.85;7.03;;;16.10;61.50;;;;;;5051561;28;20818;-66
2024/04/01 04:08:38;;;;;;;7.97;7.28;;;16.10;61.50;;;;;;5052246;28;20187;-65
2024/04/01 04:11:07;;;;;;;7.32;6.63;;;16.10;61.50;;;;;;5046307;28;20678;-65
2024/04/01 04:13:35;;;;;;;10.50;7.22;;;16.10;61.60;;;;;;5051477;28;20551;-65
2024/04/01 04:16:01;;;;;;;7.88;6.97;;;16.10;61.50;;;;;;5051912;28;20167;-65
2024/04/01 04:18:27;;;;;;;7.85;7.15;;;16.10;61.50;;;;;;5050308;28;20552;-66
2024/04/01 04:20:56;;;;;;;7.35;6.68;;;16.10;61.50;;;;;;5051861;28;20606;-65
2024/04/01 04:23:24;;;;;;;7.88;6.95;;;16.10;61.50;;;;;;5051514;28;20203;-65
2024/04/01 04:25:50;;;;;;;7.13;6.43;;;16.10;61.50;;;;;;5051265;28;20198;-65
2024/04/01 04:28:18;;;;;;;7.78;6.60;;;16.10;61.50;;;;;;5051633;28;20262;-64
2024/04/01 04:30:44;;;;;;;6.18;5.57;;;16.10;61.50;;;;;;5051131;28;20181;-65
2024/04/01 04:33:09;;;;;;;6.85;6.22;;;16.10;61.50;;;;;;5051530;28;20543;-66
2024/04/01 04:35:35;;;;;;;8.43;7.38;;;16.10;61.50;;;;;;5051841;28;20660;-66
2024/04/01 04:38:01;;;;;;;7.80;7.00;;;16.10;61.50;;;;;;5050673;28;20210;-66
2024/04/01 04:40:27;;;;;;;6.72;6.13;;;16.10;61.40;;;;;;5051415;28;20179;-67
2024/04/01 04:42:53;;;;;;;7.63;6.10;;;16.10;61.50;;;;;;5051193;28;20179;-65
2024/04/01 04:45:22;;;;;;;7.60;6.90;;;16.10;61.50;;;;;;5049911;28;20186;-66
2024/04/01 04:47:50;;;;;;;7.28;6.40;;;16.00;61.40;;;;;;5050996;28;20186;-67
2024/04/01 04:50:16;;;;;;;7.38;6.68;;;16.10;61.50;;;;;;5050059;28;20541;-67
2024/04/01 04:52:42;;;;;;;7.03;6.30;;;16.10;61.50;;;;;;5050502;28;20297;-67
2024/04/01 04:55:07;;;;;;;6.78;6.07;;;16.00;61.40;;;;;;5051382;28;20171;-66
2024/04/01 04:57:33;;;;;;;7.93;6.60;;;16.10;61.50;;;;;;5051622;28;20559;-66
2024/04/01 04:59:59;;;;;;;7.72;7.03;;;16.00;61.40;;;;;;5050842;28;20309;-66
2024/04/01 05:02:25;;;;;;;7.80;6.35;;;16.00;61.40;;;;;;5050968;28;20194;-66
2024/04/01 05:04:50;;;;;;;6.03;5.30;;;16.00;61.40;;;;;;5051937;28;20179;-67
2024/04/01 05:07:16;;;;;;;6.50;5.80;;;16.00;61.40;;;;;;5050242;28;20545;-66
2024/04/01 05:09:42;;;;;;;6.78;5.50;;;16.00;61.40;;;;;;5051621;28;20240;-67
2024/04/01 05:12:07;;;;;;;6.63;5.72;;;16.00;61.40;;;;;;5041067;28;20641;-66
2024/04/01 05:14:33;;;;;;;5.90;5.28;;;16.00;61.50;;;;;;5030550;28;20203;-67
2024/04/01 05:16:59;;;;;;;6.35;5.65;;;16.00;61.40;;;;;;5031241;28;20211;-66
2024/04/01 05:19:24;;;;;;;5.65;5.10;;;16.00;61.50;;;;;;5030339;28;20214;-67
2024/04/01 05:21:50;;;;;;;6.00;5.53;;;16.00;61.50;;;;;;5030447;28;20176;-66
2024/04/01 05:24:16;;;;;;;5.82;5.22;;;16.00;61.50;;;;;;5030749;28;20253;-66
2024/04/01 05:26:42;;;;;;;5.97;5.07;;;16.00;61.50;;;;;;5031384;28;20183;-65
2024/04/01 05:29:07;;;;;;;4.85;4.38;;;16.00;61.50;;;;;;5030358;28;20267;-65
2024/04/01 05:31:34;;;;;;;6.18;4.93;;;16.00;61.50;;;;;;5031247;28;20172;-66
2024/04/01 05:33:59;;;;;;;6.25;5.20;;;16.00;61.50;;;;;;5030357;28;20175;-66
2024/04/01 05:36:27;;;;;;;4.88;4.47;;;16.00;61.50;;;;;;5029451;28;20179;-66
2024/04/01 05:38:53;;;;;;;5.90;4.68;;;16.00;62.40;;;;;;5030935;28;20180;-66
2024/04/01 05:41:19;;;;;;;5.05;4.60;;;16.00;61.60;;;;;;5030472;28;20215;-66
2024/04/01 05:43:45;;;;;;;4.65;4.25;;;16.00;61.50;;;;;;5049212;28;20179;-66
2024/04/01 05:46:10;;;;;;;6.03;4.57;;;16.00;61.60;;;;;;5050626;28;20183;-66
2024/04/01 05:48:36;;;;;;;5.03;4.53;;;16.00;61.60;;;;;;5050403;28;20175;-67
2024/04/01 05:51:02;;;;;;;4.57;4.15;;;16.00;61.70;;;;;;5050225;28;20175;-66
2024/04/01 05:53:27;;;;;;;4.47;4.07;;;16.00;61.70;;;;;;5050793;28;20190;-67
2024/04/01 05:55:53;;;;;;;4.70;4.15;;;16.00;61.80;;;;;;5051417;28;20171;-67
2024/04/01 05:58:18;;;;;;;5.10;4.43;;;16.10;61.80;;;;;;5054212;28;20692;-66
2024/04/01 06:00:44;;;;;;;4.60;4.20;;;16.20;61.90;;;;;;5054673;28;20701;-65
2024/04/01 06:03:10;;;;;;;4.63;4.22;;;16.20;61.80;;;;;;5052136;28;20182;-66
2024/04/01 06:05:35;;;;;;;5.38;3.97;;;16.30;61.90;;;;;;5054491;28;20186;-66
2024/04/01 06:08:01;;;;;;;4.40;4.00;;;16.40;61.80;;;;;;5054123;28;20183;-67
2024/04/01 06:10:27;;;;;;;5.07;4.22;;;16.40;61.60;;;;;;5053245;28;20175;-67
2024/04/01 06:12:54;;;;;;;4.38;3.97;;;16.50;61.50;;;;;;5054402;28;20186;-66
2024/04/01 06:15:20;;;;;;;4.38;3.97;;;16.60;61.30;;;;;;5053934;28;20727;-65
2024/04/01 06:17:45;;;;;;;4.15;3.85;;;16.70;61.20;;;;;;5053312;28;20294;-66
2024/04/01 06:20:11;;;;;;;4.90;4.07;;;16.80;60.90;;;;;;5053283;28;20167;-66
2024/04/01 06:22:37;;;;;;;4.55;4.15;;;16.90;60.70;;;;;;5053715;28;20179;-66
2024/04/01 06:25:04;;;;;;;4.10;3.70;;;17.00;60.50;;;;;;5052799;28;20178;-66
2024/04/01 06:27:30;;;;;;;4.38;3.97;;;17.10;60.40;;;;;;5053743;28;20186;-65
2024/04/01 06:29:56;;;;;;;4.57;3.47;;;17.10;60.30;;;;;;5053255;28;20175;-65
2024/04/01 06:32:21;;;;;;;4.10;3.40;;;17.20;60.20;;;;;;5052904;28;20244;-66
2024/04/01 06:34:47;;;;;;;4.07;3.67;;;17.20;60.00;;;;;;5053749;28;20659;-67
2024/04/01 06:37:12;;;;;;;4.03;3.65;;;17.20;60.00;;;;;;5052281;28;20206;-66
2024/04/01 06:39:38;;;;;;;4.88;3.70;;;17.20;59.90;;;;;;5054000;28;20637;-67
2024/04/01 06:42:04;;;;;;;4.65;3.67;;;17.30;59.90;;;;;;5053373;28;20807;-66
2024/04/01 06:44:30;;;;;;;3.17;2.90;;;17.30;59.90;;;;;;5052857;28;20187;-67
2024/04/01 06:46:55;;;;;;;3.30;3.00;;;17.30;59.90;;;;;;5053616;28;20186;-66
2024/04/01 06:49:21;;;;;;;4.68;3.40;;;17.30;59.80;;;;;;5053120;28;20174;-66
2024/04/01 06:51:46;;;;;;;5.05;3.50;;;17.40;59.90;;;;;;5052951;28;20175;-67
2024/04/01 06:54:12;;;;;;;3.60;3.30;;;17.40;59.90;;;;;;5053372;28;20171;-66
2024/04/01 06:56:37;;;;;;;3.55;3.22;;;17.30;59.80;;;;;;5053467;28;20205;-66
2024/04/01 06:59:03;;;;;;;5.28;3.00;;;17.40;59.90;;;;;;5052761;28;20244;-66
2024/04/01 07:01:29;;;;;;;3.83;3.25;;;17.40;59.80;;;;;;5052774;28;20587;-65
2024/04/01 07:03:54;;;;;;;2.97;2.72;;;17.40;59.90;;;;;;5053209;28;20662;-66
2024/04/01 07:06:26;;;;;;;3.05;2.85;;;17.30;59.90;;;;;;5052252;28;20171;-67
2024/04/01 07:08:52;;;;;;;2.97;2.72;;;17.40;59.90;;;;;;5051337;28;20190;-67
2024/04/01 07:11:17;;;;;;;2.95;2.72;;;17.40;59.80;;;;;;5053129;28;20183;-67
2024/04/01 07:13:43;;;;;;;4.45;3.50;;;17.30;59.90;;;;;;5052309;28;20186;-65
2024/04/01 07:16:08;;;;;;;3.22;2.92;;;17.30;59.90;;;;;;5052419;28;20174;-65
2024/04/01 07:18:35;;;;;;;3.55;3.10;;;17.20;60.00;;;;;;5052850;28;20215;-65
2024/04/01 07:21:03;;;;;;;3.53;2.90;;;17.30;60.10;;;;;;5052445;28;20175;-66
2024/04/01 07:23:28;;;;;;;2.75;2.55;;;17.20;60.30;;;;;;5052975;28;20817;-66
2024/04/01 07:25:54;;;;;;;4.75;2.75;;;17.10;60.40;;;;;;5052830;28;20645;-65
2024/04/01 07:28:19;;;;;;;3.88;3.05;;;17.10;61.30;;;;;;5051804;28;20266;-64
2024/04/01 07:30:45;;;;;;;3.20;2.90;;;17.00;60.60;;;;;;5043182;28;20301;-65
2024/04/01 07:33:10;;;;;;;4.18;2.75;;;16.90;60.60;;;;;;5032355;28;20669;-65
2024/04/01 07:35:36;;;;;;;2.58;2.38;;;16.90;60.70;;;;;;5032036;28;20175;-65
2024/04/01 07:38:01;;;;;;;2.83;2.60;;;16.90;60.80;;;;;;5032570;28;20219;-65
2024/04/01 07:40:27;;;;;;;3.35;2.88;;;16.90;60.90;;;;;;5032132;28;20180;-67
2024/04/01 07:42:53;;;;;;;2.97;2.78;;;16.80;61.00;;;;;;5032302;28;20175;-66
2024/04/01 07:45:18;;;;;;;2.70;2.50;;;16.80;61.00;;;;;;5032323;28;20172;-66
2024/04/01 07:47:44;;;;;;;3.30;2.85;;;16.80;61.10;;;;;;5031491;28;20192;-66
2024/04/01 07:50:09;;;;;;;3.90;2.45;;;16.90;61.20;;;;;;5032118;28;20176;-66
2024/04/01 07:52:35;;;;;;;2.67;2.47;;;16.90;61.10;;;;;;5032516;28;20230;-67
2024/04/01 07:55:01;;;;;;;3.17;2.55;;;16.90;61.10;;;;;;5031843;28;20196;-66
2024/04/01 07:57:32;;;;;;;3.35;2.80;;;16.90;61.10;;;;;;5031974;28;20779;-66
2024/04/01 07:59:58;;;;;;;3.67;3.17;;;16.90;61.10;;;;;;5032540;28;20194;-65
2024/04/01 08:02:24;;;;;;;3.00;2.70;;;16.80;61.10;;;;;;5031372;28;20570;-66
2024/04/01 08:04:50;;;;;;;2.90;2.60;;;16.80;61.10;;;;;;5032368;28;20218;-65
2024/04/01 08:07:15;;;;;;;3.45;2.55;;;16.80;61.20;;;;;;5032091;28;20188;-66
2024/04/01 08:09:41;;;;;;;4.00;2.53;;;16.80;61.20;;;;;;5031612;28;20176;-66
2024/04/01 08:12:07;;;;;;;3.08;2.40;;;16.80;61.30;;;;;;5032267;28;20183;-66
2024/04/01 08:14:33;;;;;;;2.60;2.40;;;16.80;61.30;;;;;;5032056;28;20171;-66
2024/04/01 08:16:58;;;;;;;2.63;2.42;;;16.80;61.30;;;;;;5031049;28;20215;-65
2024/04/01 08:19:25;;;;;;;4.18;3.20;;;16.80;61.40;;;;;;5031543;28;20187;-66
2024/04/01 08:21:51;;;;;;;2.28;2.08;;;16.80;61.40;;;;;;5032154;28;20207;-64
2024/04/01 08:24:17;;;;;;;3.78;2.70;;;16.80;61.30;;;;;;5031228;28;20184;-65
2024/04/01 08:26:42;;;;;;;3.17;2.63;;;16.80;61.30;;;;;;5031993;28;20626;-63
2024/04/01 08:29:08;;;;;;;3.60;2.67;;;16.80;61.40;;;;;;5031631;28;20180;-65
2024/04/01 08:31:33;;;;;;;3.97;2.60;;;16.80;61.30;;;;;;5046725;28;20179;-65
2024/04/01 08:33:59;;;;;;;8.20;3.10;;;16.80;61.70;;;;;;5051790;28;20175;-65
2024/04/01 08:36:24;;;;;;;3.50;2.67;;;16.80;62.30;;;;;;5051453;28;20202;-65
2024/04/01 08:38:50;;;;;;;4.65;2.90;;;16.90;62.30;;;;;;5051075;28;20186;-68
2024/04/01 08:41:27;;;;;;;5.40;3.08;;;16.80;62.90;;;;;;5051475;28;20222;-66
2024/04/01 08:44:11;;;;;;;4.07;2.75;;;16.90;62.90;;;;;;5049777;28;20297;-67
2024/04/01 08:46:40;;;;;;;6.75;2.85;;;16.80;62.70;;;;;;5050749;28;20175;-66
2024/04/01 08:49:06;;;;;;;5.97;3.00;;;16.80;63.20;;;;;;5051599;28;20181;-65
2024/04/01 08:51:32;;;;;;;3.30;2.60;;;16.80;63.30;;;;;;5049734;28;20201;-66
2024/04/01 08:53:59;;;;;;;7.35;2.92;;;16.80;63.40;;;;;;5050290;28;20598;-65
2024/04/01 08:56:25;;;;;;;6.20;2.83;;;16.80;63.80;;;;;;5050069;28;20300;-65
2024/04/01 08:58:52;;;;;;;4.35;2.88;;;16.90;64.00;;;;;;5050179;28;20624;-64
2024/04/01 09:01:18;;;;;;;3.85;2.65;;;16.90;64.00;;;;;;5045879;28;20174;-64
2024/04/01 09:03:46;;;;;;;5.25;2.80;;;16.80;65.00;;;;;;5046806;28;20191;-64
2024/04/01 09:06:11;;;;;;;5.57;3.00;;;16.90;64.40;;;;;;5049262;28;20167;-64
2024/04/01 09:08:37;;;;;;;5.68;2.70;;;16.90;64.50;;;;;;5051588;28;20225;-63
2024/04/01 09:11:02;;;;;;;4.57;2.80;;;16.90;64.70;;;;;;5050058;28;20246;-64
2024/04/01 09:13:30;;;;;;;6.40;2.75;;;16.90;64.70;;;;;;5050611;28;20179;-64
2024/04/01 09:15:57;;;;;;;4.40;2.83;;;16.90;64.90;;;;;;5051233;28;20179;-64
2024/04/01 09:18:23;;;;;;;3.90;2.65;;;16.90;64.80;;;;;;5050870;28;20210;-64
2024/04/01 09:20:49;;;;;;;5.03;2.97;;;16.90;64.80;;;;;;5050763;28;20220;-66
2024/04/01 09:23:14;;;;;;;8.02;2.85;;;16.90;64.90;;;;;;5049737;28;20262;-63
2024/04/01 09:25:40;;;;;;;3.65;2.70;;;16.90;65.00;;;;;;5051232;28;20551;-64
2024/04/01 09:28:05;;;;;;;6.68;3.00;;;16.90;65.00;;;;;;5050655;28;20179;-64
2024/04/01 09:30:31;;;;;;;3.25;2.80;;;16.90;64.80;;;;;;5044926;28;20530;-64
2024/04/01 09:32:58;;;;;;;5.13;2.50;;;17.00;65.00;;;;;;5034853;28;20176;-65
2024/04/01 09:35:24;;;;;;;4.53;2.95;;;17.00;65.00;;;;;;5033106;28;20184;-65
2024/04/01 09:37:50;;;;;;;6.03;2.80;;;16.90;64.90;;;;;;5034769;28;20682;-65
2024/04/01 09:40:18;;;;;;;6.00;3.15;;;16.90;64.80;;;;;;5033498;28;20183;-64
2024/04/01 09:42:44;;;;;;;4.28;2.63;;;16.90;64.90;;;;;;5035135;28;20249;-64
2024/04/01 09:45:10;;;;;;;4.97;3.00;;;16.90;64.50;;;;;;5033348;28;20180;-64
2024/04/01 09:47:37;;;;;;;5.13;3.13;;;16.90;64.20;;;;;;5032929;28;20179;-66
2024/04/01 09:50:04;;;;;;;8.00;3.20;;;16.90;64.10;;;;;;5034849;28;20172;-66
2024/04/01 09:52:30;;;;;;;5.60;2.85;;;16.90;64.40;;;;;;5034443;28;20660;-67
2024/04/01 09:54:56;;;;;;;5.07;3.03;;;16.90;64.10;;;;;;5043209;28;20265;-65
2024/04/01 09:57:39;;;;;;;4.93;2.55;;;16.90;64.40;;;;;;5053014;28;20210;-66
2024/04/01 10:00:16;;;;;;;7.45;2.70;;;16.90;64.50;;;;;;5053801;28;20175;-66
2024/04/01 10:03:19;;;;;;;3.40;2.42;;;16.90;64.70;;;;;;5052727;28;20175;-65
2024/04/01 10:06:19;;;;;;;9.55;2.85;;;16.90;64.70;;;;;;5054713;28;20254;-67
2024/04/01 10:09:18;;;;;;;3.70;2.53;;;17.00;64.80;;;;;;5052523;28;20183;-65
2024/04/01 10:12:04;;;;;;;4.95;2.80;;;16.90;64.70;;;;;;5052964;28;20612;-67
2024/04/01 10:15:00;;;;;;;2.90;2.30;;;16.90;64.70;;;;;;5049249;28;20573;-68
2024/04/01 10:17:59;;;;;;;6.32;2.58;;;17.00;64.70;;;;;;5032580;28;20200;-68
2024/04/01 10:20:31;;;;;;;3.03;2.45;;;17.00;64.70;;;;;;5020389;28;20187;-68
2024/04/01 10:23:34;;;;;;;5.25;2.28;;;17.00;64.60;;;;;;5053446;28;20202;-66
2024/04/01 10:26:09;;;;;;;3.30;2.28;;;17.00;64.50;;;;;;5022517;28;20183;-65
2024/04/01 10:28:52;;;;;;;4.80;2.47;;;17.10;64.60;;;;;;5053013;28;20171;-67
2024/04/01 10:31:42;;;;;;;5.82;2.28;;;17.10;64.50;;;;;;5053005;28;20654;-65
2024/04/01 10:34:32;;;;;;;4.53;2.35;;;17.10;64.30;;;;;;5053623;28;20183;-66
2024/04/01 10:37:22;;;;;;;2.42;1.95;;;17.10;64.20;;;;;;5053239;28;20286;-66
2024/04/01 10:40:35;;;;;;;3.28;1.90;;;17.20;64.10;;;;;;5053719;28;20167;-66
2024/04/01 10:43:06;;;;;;;4.85;2.35;;;17.20;64.10;;;;;;5006827;28;20199;-64
2024/04/01 10:46:02;;;;;;;5.80;2.47;;;17.20;64.10;;;;;;5052920;28;20179;-64
2024/04/01 10:48:29;;;;;;;4.10;2.20;;;17.20;64.20;;;;;;5061889;28;20183;-64
2024/04/01 10:51:28;;;;;;;4.97;2.08;;;17.10;64.10;;;;;;5052765;28;20175;-64
2024/04/01 10:53:57;;;;;;;4.90;2.33;;;17.10;64.20;;;;;;5053310;28;20521;-64
2024/04/01 10:56:52;;;;;;;2.53;2.33;;;17.10;63.80;;;;;;5052826;28;20642;-65
2024/04/01 10:59:42;;;;;;;3.78;2.45;;;17.10;63.60;;;;;;5052432;28;20232;-64
2024/04/01 11:02:42;;;;;;;4.00;2.65;;;17.00;63.60;;;;;;5053025;28;20262;-64
2024/04/01 11:05:42;;;;;;;3.83;2.10;;;17.00;63.60;;;;;;5052638;28;20187;-65
2024/04/01 11:08:46;;;;;;;2.83;2.00;;;17.00;63.50;;;;;;5051751;28;20638;-65
2024/04/01 11:11:24;;;;;;;3.05;1.95;;;17.00;63.50;;;;;;5051506;28;20654;-63
2024/04/01 11:13:50;;;;;;;4.57;2.38;;;17.00;63.50;;;;;;5051071;28;20179;-64
2024/04/01 11:16:16;;;;;;;2.63;2.20;;;17.00;63.50;;;;;;5050982;28;20336;-64
2024/04/01 11:18:54;;;;;;;2.28;2.00;;;17.00;63.40;;;;;;5051461;28;20264;-64
2024/04/01 11:21:42;;;;;;;4.47;2.20;;;17.00;63.40;;;;;;5052555;28;20171;-64
2024/04/01 11:24:34;;;;;;;3.47;2.22;;;17.00;63.40;;;;;;5051578;28;20606;-64
2024/04/01 11:27:36;;;;;;;2.92;2.13;;;17.00;63.40;;;;;;5051055;28;20185;-64
2024/04/01 11:30:30;;;;;;;3.00;2.30;;;17.00;63.40;;;;;;5052623;28;20167;-64
2024/04/01 11:33:02;;;;;;;2.60;2.40;;;16.90;63.50;;;;;;5052281;28;20205;-65
2024/04/01 11:35:31;;;;;;;3.92;2.08;;;16.90;63.60;;;;;;5051631;28;20190;-65
2024/04/01 11:38:08;;;;;;;3.17;2.35;;;16.90;63.50;;;;;;5052742;28;20293;-65
2024/04/01 11:40:34;;;;;;;4.45;2.47;;;16.90;63.60;;;;;;5050471;28;20200;-65
2024/04/01 11:43:03;;;;;;;3.35;2.13;;;16.80;63.60;;;;;;5050803;28;20179;-65
2024/04/01 11:45:31;;;;;;;3.20;2.30;;;16.80;63.70;;;;;;5049951;28;20488;-65
2024/04/01 11:47:56;;;;;;;4.78;2.42;;;16.80;63.50;;;;;;5048534;28;20258;-64
2024/04/01 11:50:22;;;;;;;2.42;2.15;;;16.80;63.60;;;;;;5049058;28;20314;-65
2024/04/01 11:53:05;;;;;;;3.35;2.38;;;16.80;63.60;;;;;;5049147;28;20195;-65
2024/04/01 11:55:30;;;;;;;3.53;2.20;;;16.80;63.70;;;;;;5049447;28;20183;-64
2024/04/01 11:58:11;;;;;;;2.95;2.42;;;16.80;63.70;;;;;;5050464;28;20221;-64
2024/04/01 12:00:37;;;;;;;3.92;2.40;;;16.80;63.60;;;;;;5051189;28;20197;-64
2024/04/01 12:03:02;;;;;;;4.10;2.55;;;16.80;63.50;;;;;;5051644;28;20236;-64
2024/04/01 12:05:28;;;;;;;4.45;2.30;;;16.80;63.60;;;;;;5050524;28;20286;-65
2024/04/01 12:07:55;;;;;;;3.90;2.50;;;16.80;63.50;;;;;;5049457;28;20538;-65
2024/04/01 12:10:20;;;;;;;3.25;2.42;;;16.90;63.40;;;;;;5049859;28;20179;-65
2024/04/01 12:12:46;;;;;;;3.08;2.58;;;16.90;63.30;;;;;;5049101;28;20167;-64
2024/04/01 12:15:17;;;;;;;3.85;2.53;;;16.90;63.30;;;;;;5049199;28;20266;-63
2024/04/01 12:17:43;;;;;;;3.33;2.55;;;16.90;63.10;;;;;;5049916;28;20576;-64
2024/04/01 12:20:08;;;;;;;2.92;2.55;;;16.90;62.90;;;;;;5050641;28;20178;-63
2024/04/01 12:22:35;;;;;;;4.53;2.60;;;17.00;62.90;;;;;;5050040;28;20708;-64
2024/04/01 12:25:00;;;;;;;2.50;2.10;;;17.00;62.80;;;;;;5051869;28;20167;-63
2024/04/01 12:27:30;;;;;;;3.28;2.13;;;17.00;62.70;;;;;;5050566;28;20179;-64
2024/04/01 12:29:57;;;;;;;3.22;2.22;;;17.00;62.70;;;;;;5051267;28;20179;-64
2024/04/01 12:32:23;;;;;;;2.22;2.03;;;17.10;62.70;;;;;;5050313;28;20648;-65
2024/04/01 12:34:49;;;;;;;2.35;2.15;;;17.10;62.60;;;;;;5051939;28;20178;-63
2024/04/01 12:37:16;;;;;;;1.92;1.80;;;17.10;62.50;;;;;;5049643;28;20613;-64
2024/04/01 12:39:43;;;;;;;2.22;1.98;;;17.10;62.40;;;;;;5052050;28;20233;-64
2024/04/01 12:42:09;;;;;;;2.25;2.00;;;17.20;62.50;;;;;;5050066;28;20230;-64
2024/04/01 12:44:35;;;;;;;2.10;1.90;;;17.20;62.30;;;;;;5051180;28;20175;-64
2024/04/01 12:47:00;;;;;;;2.58;2.10;;;17.20;62.30;;;;;;5050480;28;20168;-65
2024/04/01 12:49:26;;;;;;;3.97;2.10;;;17.20;62.30;;;;;;5051384;28;20175;-63
2024/04/01 12:51:51;;;;;;;3.72;2.20;;;17.20;62.30;;;;;;5049590;28;20167;-63